createdAt,value
2018-11-20T00:00:46.689Z,10.80
2018-11-20T00:03:49.444Z,10.07
2018-11-20T00:06:40.329Z,9.97
2018-11-20T00:09:26.772Z,9.37
2018-11-20T00:12:17.396Z,10.40
2018-11-20T00:14:58.841Z,9.93
2018-11-20T00:17:52.257Z,10.03
2018-11-20T00:20:39.964Z,10.80
2018-11-20T00:23:26.328Z,9.43
2018-11-20T00:26:09.565Z,10.53
2018-11-20T00:28:55.892Z,10.87
2018-11-20T00:31:41.993Z,11.07
2018-11-20T00:34:29.733Z,10.73
2018-11-20T00:37:16.176Z,11.90
2018-11-20T00:40:15.697Z,11.23
2018-11-20T00:43:02.265Z,10.20
2018-11-20T00:45:48.489Z,11.77
2018-11-20T00:48:41.713Z,10.90
2018-11-20T00:51:38.489Z,11.37
2018-11-20T00:54:24.710Z,10.97
2018-11-20T00:57:19.353Z,10.43
2018-11-20T01:00:06.118Z,11.27
2018-11-20T01:02:52.473Z,10.03
2018-11-20T01:05:48.533Z,10.53
2018-11-20T01:08:51.220Z,9.70
2018-11-20T01:11:47.360Z,10.07
2018-11-20T01:14:35.037Z,10.33
2018-11-20T01:17:21.693Z,9.50
2018-11-20T01:20:18.533Z,9.07
2018-11-20T01:23:15.141Z,8.97
2018-11-20T01:26:01.529Z,8.87
2018-11-20T01:28:48.254Z,8.33
2018-11-20T01:31:34.477Z,9.37
2018-11-20T01:34:20.053Z,9.50
2018-11-20T01:36:57.898Z,9.70
2018-11-20T01:39:48.825Z,9.33
2018-11-20T01:42:36.547Z,9.37
2018-11-20T01:45:27.325Z,8.93
2018-11-20T01:48:17.965Z,9.07
2018-11-20T01:51:04.466Z,10.43
2018-11-20T01:53:45.533Z,9.33
2018-11-20T01:56:33.265Z,9.77
2018-11-20T01:59:39.189Z,9.60
2018-11-20T02:02:19.834Z,9.73
2018-11-20T02:05:08.620Z,9.50
2018-11-20T02:07:49.484Z,9.20
2018-11-20T02:10:35.964Z,9.97
2018-11-20T02:13:56.890Z,10.20
2018-11-20T02:16:44.866Z,9.57
2018-11-20T02:19:31.178Z,10.10
2018-11-20T02:22:21.794Z,10.80
2018-11-20T02:25:12.157Z,11.13
2018-11-20T02:28:02.567Z,11.20
2018-11-20T02:31:02.075Z,12.53
2018-11-20T02:33:48.306Z,10.60
2018-11-20T02:36:51.387Z,11.53
2018-11-20T02:39:36.647Z,11.03
2018-11-20T02:42:27.135Z,11.17
2018-11-20T02:45:20.638Z,10.23
2018-11-20T02:48:11.331Z,10.40
2018-11-20T02:50:57.547Z,11.23
2018-11-20T02:53:43.883Z,11.97
2018-11-20T02:56:39.943Z,10.40
2018-11-20T02:59:26.408Z,10.70
2018-11-20T03:02:32.499Z,10.87
2018-11-20T03:05:25.903Z,11.10
2018-11-20T03:08:18.355Z,11.53
2018-11-20T03:11:09.426Z,10.80
2018-11-20T03:13:55.844Z,12.27
2018-11-20T03:16:49.224Z,11.17
2018-11-20T03:19:36.199Z,10.97
2018-11-20T03:22:32.807Z,10.50
2018-11-20T03:25:17.292Z,11.67
2018-11-20T03:28:05.951Z,11.47
2018-11-20T03:31:01.056Z,10.77
2018-11-20T03:33:41.540Z,11.97
2018-11-20T03:36:35.131Z,11.13
2018-11-20T03:39:40.768Z,11.77
2018-11-20T03:42:46.523Z,11.40
2018-11-20T03:45:21.320Z,12.40
2018-11-20T03:48:18.172Z,11.83
2018-11-20T03:51:24.016Z,11.93
2018-11-20T03:54:10.495Z,10.73
2018-11-20T03:56:51.939Z,11.53
2018-11-20T03:59:48.983Z,12.47
2018-11-20T04:02:35.472Z,11.60
2018-11-20T04:05:29.187Z,11.57
2018-11-20T04:08:24.553Z,11.53
2018-11-20T04:11:15.108Z,11.93
2018-11-20T04:14:15.070Z,12.10
2018-11-20T04:17:10.200Z,11.83
2018-11-20T04:20:10.468Z,13.17
2018-11-20T04:22:56.956Z,12.57
2018-11-20T04:25:43.473Z,12.27
2018-11-20T04:28:27.204Z,12.23
2018-11-20T04:31:23.669Z,12.10
2018-11-20T04:34:22.682Z,12.57
2018-11-20T04:37:10.065Z,12.60
2018-11-20T04:40:07.212Z,11.60
2018-11-20T04:42:53.572Z,12.93
2018-11-20T04:45:36.341Z,12.53
2018-11-20T04:48:18.621Z,12.50
2018-11-20T04:51:09.008Z,12.33
2018-11-20T04:53:55.405Z,12.93
2018-11-20T04:56:52.176Z,12.47
2018-11-20T04:59:42.558Z,12.73
2018-11-20T05:02:39.336Z,13.07
2018-11-20T05:05:29.717Z,13.70
2018-11-20T05:08:16.288Z,12.70
2018-11-20T05:11:10.085Z,13.27
2018-11-20T05:13:54.235Z,12.23
2018-11-20T05:16:52.345Z,14.37
2018-11-20T05:19:48.872Z,13.47
2018-11-20T05:22:39.385Z,13.37
2018-11-20T05:25:25.573Z,11.67
2018-11-20T05:28:11.042Z,14.40
2018-11-20T05:31:00.387Z,13.20
2018-11-20T05:33:46.205Z,14.43
2018-11-20T05:36:32.425Z,14.43
2018-11-20T05:39:11.693Z,13.90
2018-11-20T05:41:58.941Z,14.83
2018-11-20T05:44:46.697Z,14.20
2018-11-20T05:47:37.337Z,15.13
2018-11-20T05:50:24.277Z,16.80
2018-11-20T05:53:12.052Z,15.83
2018-11-20T05:56:08.571Z,16.60
2018-11-20T05:59:02.080Z,17.87
2018-11-20T06:01:45.175Z,18.30
2018-11-20T06:04:47.972Z,15.90
2018-11-20T06:07:47.848Z,18.00
2018-11-20T06:10:35.571Z,17.27
2018-11-20T06:13:23.300Z,18.33
2018-11-20T06:16:13.867Z,18.33
2018-11-20T06:19:05.281Z,19.77
2018-11-20T06:21:58.915Z,20.23
2018-11-20T06:24:35.974Z,17.90
2018-11-20T06:27:38.855Z,19.13
2018-11-20T06:30:40.488Z,18.60
2018-11-20T06:33:28.224Z,16.93
2018-11-20T06:36:18.668Z,19.87
2018-11-20T06:39:12.128Z,20.87
2018-11-20T06:41:58.340Z,19.43
2018-11-20T06:44:49.024Z,19.87
2018-11-20T06:47:35.520Z,18.60
2018-11-20T06:50:22.353Z,18.50
2018-11-20T06:53:28.025Z,18.93
2018-11-20T06:56:15.823Z,18.33
2018-11-20T06:59:21.826Z,17.37
2018-11-20T07:02:09.392Z,19.57
2018-11-20T07:04:56.136Z,18.57
2018-11-20T07:07:49.439Z,17.53
2018-11-20T07:10:31.783Z,18.13
2018-11-20T07:13:39.883Z,15.97
2018-11-20T07:16:53.234Z,18.93
2018-11-20T07:19:50.403Z,17.87
2018-11-20T07:22:47.201Z,17.17
2018-11-20T07:25:33.543Z,18.07
2018-11-20T07:28:20.022Z,18.90
2018-11-20T07:31:06.297Z,19.37
2018-11-20T07:56:09.504Z,17.30
2018-11-20T07:58:50.591Z,17.20
2018-11-20T08:01:33.268Z,16.73
2018-11-20T08:05:07.147Z,18.93
2018-11-20T08:18:20.063Z,18.30
2018-11-20T08:21:37.107Z,17.13
2018-11-20T09:24:53.872Z,16.70
2018-11-20T09:27:44.895Z,15.80
2018-11-20T09:30:30.297Z,15.83
2018-11-20T09:33:16.081Z,16.07
2018-11-20T09:36:05.359Z,14.60
2018-11-20T09:38:55.437Z,14.63
2018-11-20T09:41:41.560Z,15.63
2018-11-20T09:44:34.264Z,16.70
2018-11-20T09:47:20.121Z,15.67
2018-11-20T10:00:42.493Z,16.17
2018-11-20T10:03:42.749Z,15.77
2018-11-20T10:06:18.877Z,15.17
2018-11-20T10:09:13.445Z,16.37
2018-11-20T10:12:02.713Z,16.30
2018-11-20T10:14:44.623Z,17.17
2018-11-20T10:17:31.025Z,15.90
2018-11-20T10:20:38.205Z,15.80
2018-11-20T10:26:48.989Z,15.80
2018-11-20T10:30:03.929Z,16.27
2018-11-20T10:32:54.031Z,16.27
2018-11-20T10:35:40.388Z,16.67
2018-11-20T10:38:39.942Z,15.07
2018-11-20T10:41:25.403Z,15.50
2018-11-20T10:47:42.334Z,16.03
2018-11-20T10:50:28.452Z,15.77
2018-11-20T10:53:18.847Z,16.77
2018-11-20T10:56:22.070Z,16.90
2018-11-20T11:02:15.770Z,14.97
2018-11-20T11:05:09.692Z,15.67
2018-11-20T11:07:54.710Z,17.33
2018-11-20T11:10:31.070Z,16.93
2018-11-20T11:13:16.846Z,16.20
2018-11-20T11:16:02.666Z,17.63
2018-11-20T11:18:48.458Z,17.57
2018-11-20T11:22:07.373Z,15.03
2018-11-20T11:24:58.065Z,16.70
2018-11-20T11:28:14.600Z,17.17
2018-11-20T11:31:00.643Z,16.83
2018-11-20T11:33:55.436Z,17.53
2018-11-20T11:36:42.747Z,17.27
2018-11-20T11:39:25.327Z,17.67
2018-11-20T11:42:12.632Z,17.87
2018-11-20T11:44:59.348Z,17.60
2018-11-20T11:47:53.188Z,18.50
2018-11-20T11:50:49.592Z,17.87
2018-11-20T11:53:27.452Z,17.90
2018-11-20T11:56:13.289Z,17.30
2018-11-20T11:59:09.964Z,18.50
2018-11-20T12:04:47.249Z,17.90
2018-11-20T12:07:33.138Z,17.37
2018-11-20T12:10:19.378Z,17.37
2018-11-20T12:13:24.857Z,19.53
2018-11-20T12:16:15.014Z,19.07
2018-11-20T12:18:59.947Z,20.97
2018-11-20T12:27:32.979Z,19.50
2018-11-20T12:30:29.000Z,20.00
2018-11-20T12:33:29.502Z,18.23
2018-11-20T12:36:48.828Z,19.23
2018-11-20T12:39:35.537Z,20.23
2018-11-20T12:46:39.173Z,19.57
2018-11-20T13:22:33.565Z,16.90
2018-11-20T13:25:23.217Z,18.43
2018-11-20T13:31:32.885Z,17.27
2018-11-20T13:34:44.230Z,18.00
2018-11-20T13:37:33.733Z,17.07
2018-11-20T13:43:14.623Z,17.13
2018-11-20T13:49:35.090Z,17.70
2018-11-20T13:52:08.590Z,17.07
2018-11-20T13:55:02.443Z,18.50
2018-11-20T13:58:19.245Z,16.47
2018-11-20T14:01:09.032Z,16.00
2018-11-20T14:04:32.242Z,16.77
2018-11-20T14:07:44.975Z,17.43
2018-11-20T14:11:18.219Z,16.97
2018-11-20T14:20:52.171Z,18.17
2018-11-20T14:24:04.571Z,16.80
2018-11-20T14:26:51.779Z,17.50
2018-11-20T14:29:56.063Z,18.30
2018-11-20T14:33:06.347Z,16.77
2018-11-20T14:46:10.130Z,19.03
2018-11-20T14:49:00.419Z,19.17
2018-11-20T14:55:48.254Z,20.07
2018-11-20T14:58:35.635Z,18.50
2018-11-20T15:01:30.985Z,22.50
2018-11-20T15:04:24.557Z,23.53
2018-11-20T15:07:14.166Z,20.93
2018-11-20T15:10:08.771Z,22.73
2018-11-20T15:12:55.691Z,21.60
2018-11-20T15:15:42.459Z,22.17
2018-11-20T15:18:32.759Z,22.40
2018-11-20T15:21:24.170Z,23.43
2018-11-20T15:24:38.619Z,25.13
2018-11-20T15:27:25.900Z,27.33
2018-11-20T15:30:14.299Z,21.63
2018-11-20T15:32:57.727Z,25.07
2018-11-20T15:35:43.707Z,23.57
2018-11-20T15:38:25.970Z,20.87
2018-11-20T15:41:01.499Z,23.70
2018-11-20T15:43:48.867Z,24.63
2018-11-20T15:46:32.053Z,22.93
2018-11-20T15:49:19.652Z,22.03
2018-11-20T15:52:02.031Z,23.17
2018-11-20T15:54:52.293Z,24.07
2018-11-20T15:57:28.997Z,23.43
2018-11-20T16:00:14.659Z,21.83
2018-11-20T16:03:00.809Z,22.60
2018-11-20T16:05:54.847Z,21.40
2018-11-20T16:08:40.716Z,21.73
2018-11-20T16:11:17.835Z,19.73
2018-11-20T16:14:05.133Z,19.47
2018-11-20T16:16:54.520Z,19.40
2018-11-20T16:19:35.700Z,21.10
2018-11-20T16:22:30.380Z,17.77
2018-11-20T16:25:21.801Z,18.10
2018-11-20T16:28:09.024Z,18.90
2018-11-20T16:30:55.124Z,20.00
2018-11-20T16:33:54.368Z,18.00
2018-11-20T16:36:44.224Z,16.97
2018-11-20T16:39:42.180Z,15.33
2018-11-20T16:42:29.520Z,16.87
2018-11-20T16:48:17.836Z,15.70
2018-11-20T16:51:05.393Z,15.13
2018-11-20T16:53:54.456Z,16.90
2018-11-20T16:56:44.552Z,14.67
2018-11-20T16:59:38.881Z,17.23
2018-11-20T17:02:48.800Z,12.77
2018-11-20T17:06:00.802Z,13.87
2018-11-20T17:08:57.133Z,16.33
2018-11-20T17:15:47.765Z,16.80
2018-11-20T17:19:05.037Z,14.33
2018-11-20T17:22:22.087Z,15.23
2018-11-20T17:25:46.777Z,14.53
2018-11-20T17:28:56.534Z,15.40
2018-11-20T17:31:56.177Z,15.63
2018-11-20T17:35:17.749Z,15.63
2018-11-20T17:38:15.890Z,15.43
2018-11-20T17:40:56.397Z,15.40
2018-11-20T17:47:28.009Z,15.03
2018-11-20T17:50:56.321Z,17.43
2018-11-20T17:53:52.553Z,18.77
2018-11-20T17:56:49.554Z,18.80
2018-11-20T17:59:55.111Z,16.00
2018-11-20T18:02:54.703Z,16.97
2018-11-20T18:05:57.947Z,18.33
2018-11-20T18:08:58.383Z,16.63
2018-11-20T18:12:12.087Z,17.27
2018-11-20T18:25:02.091Z,18.03
2018-11-20T18:28:01.395Z,17.90
2018-11-20T18:31:04.048Z,18.63
2018-11-20T18:37:56.484Z,16.30
2018-11-20T18:40:33.756Z,17.87
2018-11-20T18:43:40.295Z,18.90
2018-11-20T18:46:28.728Z,18.43
2018-11-20T18:49:14.847Z,17.50
2018-11-20T18:52:20.690Z,17.90
2018-11-20T18:55:07.052Z,17.17
2018-11-20T18:58:01.992Z,21.30
2018-11-20T19:00:46.792Z,21.53
2018-11-20T19:07:25.075Z,21.40
2018-11-20T19:10:27.472Z,23.23
2018-11-20T19:13:16.904Z,20.50
2018-11-20T19:16:08.305Z,17.50
2018-11-20T19:18:57.525Z,17.83
2018-11-20T19:21:43.595Z,18.57
2018-11-20T19:31:01.811Z,17.83
2018-11-20T19:36:59.513Z,20.13
2018-11-20T19:39:48.773Z,19.27
2018-11-20T19:46:12.629Z,19.63
2018-11-20T19:49:03.528Z,18.50
